Time;durP1;ratioP1;P1;durP2;ratioP2;P2;SDS_P1;SDS_P2;PMS_P1;PMS_P2;Temp;Humidity;BMP_temperature;BMP_pressure;BME280_temperature;BME280_humidity;BME280_pressure;Samples;Min_cycle;Max_cycle;Signal;HPM_P1;HPM_P2
2023/09/10 00:01:10;;;;;;;9.57;8.55;;;16.70;99.90;;;;;;5026264;28;20056;-61
2023/09/10 00:03:37;;;;;;;10.65;8.93;;;16.70;99.90;;;;;;5029231;28;20033;-61
2023/09/10 00:06:05;;;;;;;10.90;9.05;;;16.70;99.90;;;;;;5029247;28;20030;-61
2023/09/10 00:08:31;;;;;;;10.68;8.75;;;16.60;99.90;;;;;;5028190;28;20564;-60
2023/09/10 00:10:57;;;;;;;10.88;9.73;;;16.60;99.90;;;;;;5021070;28;20040;-60
2023/09/10 00:13:23;;;;;;;11.90;9.38;;;16.60;99.90;;;;;;5026819;28;20018;-60
2023/09/10 00:15:49;;;;;;;10.85;8.63;;;16.50;99.90;;;;;;5018093;28;20022;-60
2023/09/10 00:18:15;;;;;;;10.68;9.18;;;16.60;99.90;;;;;;5026640;28;20033;-60
2023/09/10 00:20:40;;;;;;;10.90;8.90;;;16.50;99.90;;;;;;5015416;28;20025;-60
2023/09/10 00:23:06;;;;;;;10.10;8.95;;;16.50;99.90;;;;;;5028970;28;20033;-60
2023/09/10 00:25:32;;;;;;;11.77;9.48;;;16.50;99.90;;;;;;5026399;28;20344;-60
2023/09/10 00:27:57;;;;;;;12.70;8.65;;;16.50;99.90;;;;;;5023739;28;20025;-60
2023/09/10 00:30:23;;;;;;;11.63;9.60;;;16.50;99.90;;;;;;5025240;28;20113;-61
2023/09/10 00:32:49;;;;;;;11.75;9.10;;;16.40;99.90;;;;;;5031675;28;20076;-60
2023/09/10 00:35:15;;;;;;;10.35;9.15;;;16.40;99.90;;;;;;5032789;28;20029;-61
2023/09/10 00:37:40;;;;;;;11.80;9.45;;;16.40;99.90;;;;;;5026852;28;20104;-61
2023/09/10 00:40:08;;;;;;;11.63;9.18;;;16.40;99.90;;;;;;5027013;28;20518;-61
2023/09/10 00:42:33;;;;;;;13.90;10.30;;;16.30;99.90;;;;;;5022834;28;20084;-61
2023/09/10 00:44:59;;;;;;;10.95;8.90;;;16.40;99.90;;;;;;5046123;28;20022;-61
2023/09/10 00:47:25;;;;;;;11.85;9.73;;;16.40;99.90;;;;;;5032809;28;20033;-60
2023/09/10 00:49:51;;;;;;;11.93;9.85;;;16.30;99.90;;;;;;5030535;28;20057;-61
2023/09/10 00:52:17;;;;;;;11.73;9.93;;;16.30;99.90;;;;;;5029888;28;20061;-61
2023/09/10 00:54:43;;;;;;;12.45;10.43;;;16.30;99.90;;;;;;5031275;28;20033;-60
2023/09/10 00:57:09;;;;;;;11.45;9.65;;;16.20;99.90;;;;;;5025109;28;20029;-60
2023/09/10 00:59:35;;;;;;;12.38;10.23;;;16.20;99.90;;;;;;5031537;28;20041;-60
2023/09/10 01:02:02;;;;;;;11.68;9.63;;;16.20;99.90;;;;;;5031826;28;20030;-61
2023/09/10 01:04:28;;;;;;;12.45;9.90;;;16.10;99.90;;;;;;5023912;28;20380;-61
2023/09/10 01:06:54;;;;;;;15.30;9.65;;;16.10;99.90;;;;;;5026542;28;20030;-61
2023/09/10 01:09:19;;;;;;;13.57;10.05;;;16.10;99.90;;;;;;5030917;28;20497;-61
2023/09/10 01:11:57;;;;;;;11.02;9.70;;;16.10;99.90;;;;;;5032567;28;20029;-61
2023/09/10 01:14:27;;;;;;;16.30;9.68;;;16.10;99.90;;;;;;5025715;28;20033;-61
2023/09/10 01:17:10;;;;;;;10.90;9.35;;;16.00;99.90;;;;;;5032220;28;20140;-61
2023/09/10 01:19:51;;;;;;;11.93;9.38;;;16.00;99.90;;;;;;5030112;28;20034;-61
2023/09/10 01:22:16;;;;;;;;;;;16.00;99.90;;;;;;5031069;28;20029;-61
2023/09/10 01:24:44;;;;;;;11.73;8.82;;;16.00;99.90;;;;;;5023361;28;19909;-61
2023/09/10 01:27:11;;;;;;;10.65;8.65;;;15.90;99.90;;;;;;5030677;28;20108;-61
2023/09/10 01:29:36;;;;;;;13.05;10.07;;;16.00;99.90;;;;;;5023728;28;20022;-61
2023/09/10 01:32:08;;;;;;;14.93;10.48;;;16.00;99.90;;;;;;5027971;28;20133;-61
2023/09/10 01:34:48;;;;;;;11.02;8.93;;;15.90;99.90;;;;;;5024378;28;20076;-61
2023/09/10 01:37:18;;;;;;;10.50;9.32;;;15.90;99.90;;;;;;5031838;28;20537;-62
2023/09/10 01:39:48;;;;;;;11.50;9.38;;;15.90;99.90;;;;;;5030516;28;20449;-61
2023/09/10 01:42:15;;;;;;;11.93;9.73;;;15.90;99.90;;;;;;5031734;28;20030;-61
2023/09/10 01:44:41;;;;;;;11.82;9.68;;;15.90;99.90;;;;;;5029861;28;20026;-61
2023/09/10 01:47:07;;;;;;;13.02;9.40;;;15.80;99.90;;;;;;5047110;28;20021;-61
2023/09/10 01:49:33;;;;;;;11.50;9.85;;;15.80;99.90;;;;;;5031404;28;20021;-61
2023/09/10 01:51:59;;;;;;;12.93;9.73;;;15.80;99.90;;;;;;5031418;28;20044;-61
2023/09/10 01:54:24;;;;;;;11.45;10.10;;;15.80;99.90;;;;;;5030698;28;20037;-61
2023/09/10 01:56:50;;;;;;;11.88;9.30;;;15.80;99.90;;;;;;5025798;28;20025;-61
2023/09/10 01:59:15;;;;;;;12.95;9.70;;;15.80;99.90;;;;;;5031238;28;20025;-62
2023/09/10 02:01:41;;;;;;;11.60;10.40;;;15.70;99.90;;;;;;5031282;28;20491;-62
2023/09/10 02:04:06;;;;;;;14.77;10.43;;;15.80;99.90;;;;;;5030862;28;20033;-63
2023/09/10 02:06:31;;;;;;;11.00;9.25;;;15.70;99.90;;;;;;5026828;28;20483;-63
2023/09/10 02:08:57;;;;;;;13.38;9.48;;;15.60;99.90;;;;;;5023988;28;20105;-62
2023/09/10 02:11:23;;;;;;;13.60;10.77;;;15.60;99.90;;;;;;5028479;28;20048;-62
2023/09/10 02:13:48;;;;;;;14.38;10.77;;;15.60;99.90;;;;;;5029221;28;20079;-62
2023/09/10 02:16:14;;;;;;;13.82;10.55;;;15.70;99.90;;;;;;5025289;28;20119;-62
2023/09/10 02:18:39;;;;;;;11.80;10.50;;;15.70;99.90;;;;;;5028837;28;20025;-62
2023/09/10 02:21:09;;;;;;;12.80;9.88;;;15.60;99.90;;;;;;5030572;28;20426;-61
2023/09/10 02:23:35;;;;;;;12.57;10.82;;;15.70;99.90;;;;;;5030677;28;20025;-61
2023/09/10 02:26:01;;;;;;;15.27;10.30;;;15.60;99.90;;;;;;5022239;28;20032;-61
2023/09/10 02:28:27;;;;;;;15.30;11.55;;;15.70;99.90;;;;;;5029812;28;20036;-61
2023/09/10 02:30:53;;;;;;;12.95;10.80;;;15.60;99.90;;;;;;5030301;28;20028;-60
2023/09/10 02:33:19;;;;;;;11.95;10.50;;;15.60;99.90;;;;;;5030454;28;20021;-60
2023/09/10 02:35:44;;;;;;;11.85;10.07;;;15.60;99.90;;;;;;5024632;28;20423;-61
2023/09/10 02:38:10;;;;;;;13.60;10.88;;;15.60;99.90;;;;;;5025973;28;20034;-61
2023/09/10 02:40:35;;;;;;;17.23;12.38;;;15.60;99.90;;;;;;5024759;28;20025;-61
2023/09/10 02:43:01;;;;;;;14.05;10.68;;;15.60;99.90;;;;;;5029577;28;20018;-62
2023/09/10 02:45:26;;;;;;;12.05;10.20;;;15.50;99.90;;;;;;5029275;28;20525;-62
2023/09/10 02:47:52;;;;;;;12.00;10.27;;;15.50;99.90;;;;;;5044439;28;20053;-61
2023/09/10 02:50:17;;;;;;;10.80;9.32;;;15.40;99.90;;;;;;5029421;28;20040;-62
2023/09/10 02:52:43;;;;;;;11.48;9.38;;;15.40;99.90;;;;;;5029920;28;20048;-60
2023/09/10 02:55:08;;;;;;;13.88;10.35;;;15.40;99.90;;;;;;5029999;28;20053;-60
2023/09/10 02:57:34;;;;;;;14.10;10.23;;;15.40;99.90;;;;;;5019062;28;20060;-60
2023/09/10 02:59:59;;;;;;;12.68;9.63;;;15.40;99.90;;;;;;5028661;28;20032;-60
2023/09/10 03:02:25;;;;;;;11.93;9.45;;;15.30;99.90;;;;;;5030089;28;20101;-61
2023/09/10 03:04:50;;;;;;;11.63;9.90;;;15.40;99.90;;;;;;5027690;28;20030;-60
2023/09/10 03:07:16;;;;;;;13.10;10.43;;;15.40;99.90;;;;;;5029244;28;20029;-60
2023/09/10 03:09:41;;;;;;;14.70;10.02;;;15.40;99.90;;;;;;5021441;28;20061;-60
2023/09/10 03:12:25;;;;;;;14.75;11.20;;;15.30;99.90;;;;;;5030025;28;20101;-60
2023/09/10 03:14:50;;;;;;;14.40;10.43;;;15.30;99.90;;;;;;5023579;28;20024;-60
2023/09/10 03:17:17;;;;;;;16.55;11.40;;;15.30;99.90;;;;;;5027661;28;20017;-59
2023/09/10 03:19:43;;;;;;;12.18;10.13;;;15.30;99.90;;;;;;5022017;28;20076;-61
2023/09/10 03:22:09;;;;;;;15.07;12.07;;;15.20;99.90;;;;;;5029812;28;20399;-61
2023/09/10 03:24:35;;;;;;;17.23;12.05;;;15.30;99.90;;;;;;5028060;28;20048;-61
2023/09/10 03:27:01;;;;;;;12.93;10.15;;;15.20;99.90;;;;;;5029890;28;20026;-61
2023/09/10 03:29:27;;;;;;;14.02;10.50;;;15.20;99.90;;;;;;5026219;28;20044;-61
2023/09/10 03:31:52;;;;;;;14.20;10.98;;;15.20;99.90;;;;;;5027316;28;20104;-61
2023/09/10 03:34:18;;;;;;;13.30;10.88;;;15.20;99.90;;;;;;5021896;28;20067;-61
2023/09/10 03:36:44;;;;;;;13.75;11.13;;;15.20;99.90;;;;;;5028788;28;20025;-61
2023/09/10 03:39:09;;;;;;;12.35;10.50;;;15.20;99.90;;;;;;5022259;28;20030;-61
2023/09/10 03:41:35;;;;;;;15.02;11.35;;;15.20;99.90;;;;;;5026730;28;20537;-62
2023/09/10 03:44:00;;;;;;;18.90;12.00;;;15.20;99.90;;;;;;5025577;28;20439;-62
2023/09/10 03:46:26;;;;;;;11.18;9.38;;;15.20;99.90;;;;;;5028521;28;20037;-61
2023/09/10 03:48:51;;;;;;;12.48;10.35;;;15.20;99.90;;;;;;5028956;28;20071;-62
2023/09/10 03:51:17;;;;;;;14.40;10.07;;;15.20;99.90;;;;;;5025432;28;20587;-60
2023/09/10 03:53:42;;;;;;;12.75;10.13;;;15.20;99.90;;;;;;5029719;28;20024;-60
2023/09/10 03:56:08;;;;;;;16.42;10.25;;;15.20;99.90;;;;;;5029586;28;20470;-60
2023/09/10 03:58:34;;;;;;;13.52;9.90;;;15.10;99.90;;;;;;5028963;28;20210;-60
2023/09/10 04:01:00;;;;;;;12.55;9.88;;;15.10;99.90;;;;;;5028875;28;20037;-60
2023/09/10 04:03:26;;;;;;;13.15;11.18;;;15.10;99.90;;;;;;5029022;28;20053;-60
2023/09/10 04:05:52;;;;;;;12.13;9.73;;;15.10;99.90;;;;;;5029252;28;20514;-61
2023/09/10 04:08:18;;;;;;;14.20;11.23;;;15.10;99.90;;;;;;5044809;28;20479;-61
2023/09/10 04:10:43;;;;;;;15.50;11.73;;;15.10;99.90;;;;;;5025278;28;20045;-61
2023/09/10 04:13:09;;;;;;;14.15;11.48;;;15.10;99.90;;;;;;5009864;28;20025;-61
2023/09/10 04:15:34;;;;;;;14.63;11.13;;;15.10;99.90;;;;;;5009865;28;20026;-61
2023/09/10 04:18:00;;;;;;;14.57;11.30;;;15.10;99.90;;;;;;5009738;28;20018;-61
2023/09/10 04:20:25;;;;;;;15.13;10.98;;;15.10;99.90;;;;;;5015560;28;20022;-60
2023/09/10 04:22:51;;;;;;;12.63;10.63;;;15.10;99.90;;;;;;5028388;28;20372;-60
2023/09/10 04:25:16;;;;;;;15.25;12.02;;;15.10;99.90;;;;;;5029208;28;20040;-60
2023/09/10 04:27:42;;;;;;;14.85;11.68;;;15.10;99.90;;;;;;5026412;28;20033;-61
2023/09/10 04:30:08;;;;;;;16.27;12.48;;;15.10;99.90;;;;;;5024044;28;20026;-60
2023/09/10 04:32:34;;;;;;;22.08;12.27;;;15.10;99.90;;;;;;5018914;28;20033;-61
2023/09/10 04:35:00;;;;;;;14.68;11.90;;;15.10;99.90;;;;;;5028419;28;20036;-61
2023/09/10 04:37:26;;;;;;;13.70;11.55;;;15.10;99.90;;;;;;5024706;28;20034;-62
2023/09/10 04:39:52;;;;;;;16.17;12.38;;;15.10;99.90;;;;;;5026263;28;20030;-61
2023/09/10 04:42:17;;;;;;;18.30;13.25;;;15.10;99.90;;;;;;5025283;28;20032;-61
2023/09/10 04:44:43;;;;;;;13.20;10.93;;;15.20;99.90;;;;;;5020802;28;20360;-61
2023/09/10 04:47:09;;;;;;;16.23;11.60;;;15.20;99.90;;;;;;5017809;28;20030;-61
2023/09/10 04:49:34;;;;;;;13.15;11.32;;;15.20;99.90;;;;;;5016955;28;20025;-59
2023/09/10 04:52:00;;;;;;;19.65;13.40;;;15.20;99.90;;;;;;5015183;28;20092;-61
2023/09/10 04:54:25;;;;;;;14.43;12.15;;;15.30;99.90;;;;;;5014977;28;20356;-59
2023/09/10 04:56:53;;;;;;;12.95;11.52;;;15.30;99.90;;;;;;5016265;28;20049;-59
2023/09/10 04:59:19;;;;;;;19.77;11.77;;;15.30;99.90;;;;;;5018873;28;20559;-60
2023/09/10 05:01:45;;;;;;;18.30;12.30;;;15.30;99.90;;;;;;5017932;28;20121;-61
2023/09/10 05:04:10;;;;;;;17.13;12.93;;;15.40;99.90;;;;;;5021641;28;20033;-60
2023/09/10 05:06:36;;;;;;;19.55;14.35;;;15.50;99.90;;;;;;5025563;28;20382;-61
2023/09/10 05:09:01;;;;;;;20.02;15.40;;;15.60;99.90;;;;;;5022451;28;20042;-61
2023/09/10 05:11:27;;;;;;;17.98;14.27;;;15.70;99.90;;;;;;5021704;28;20033;-61
2023/09/10 05:13:52;;;;;;;14.38;12.80;;;15.80;99.90;;;;;;5028370;28;20506;-61
2023/09/10 05:16:18;;;;;;;15.10;12.60;;;15.80;99.90;;;;;;5030883;28;20064;-61
2023/09/10 05:18:43;;;;;;;17.60;13.45;;;15.90;99.90;;;;;;5026706;28;20284;-61
2023/09/10 05:21:09;;;;;;;18.33;14.05;;;16.00;99.90;;;;;;5031498;28;20033;-61
2023/09/10 05:23:35;;;;;;;14.18;11.98;;;16.00;99.90;;;;;;5026040;28;20030;-60
2023/09/10 05:26:02;;;;;;;15.95;12.55;;;16.00;99.90;;;;;;5032311;28;20341;-59
2023/09/10 05:28:27;;;;;;;18.50;12.98;;;16.00;99.90;;;;;;5047493;28;20034;-59
2023/09/10 05:30:53;;;;;;;18.52;13.52;;;16.10;99.90;;;;;;5026553;28;20034;-60
2023/09/10 05:33:18;;;;;;;15.85;13.48;;;16.10;99.90;;;;;;5022739;28;20030;-60
2023/09/10 05:35:56;;;;;;;15.07;12.13;;;16.10;99.90;;;;;;5029600;28;20033;-60
2023/09/10 05:38:22;;;;;;;19.50;14.13;;;16.20;99.90;;;;;;5032048;28;20042;-60
2023/09/10 05:40:48;;;;;;;19.77;14.70;;;16.20;99.90;;;;;;5018696;28;20037;-60
2023/09/10 05:43:13;;;;;;;17.50;13.48;;;16.20;99.90;;;;;;5018848;28;20034;-60
2023/09/10 05:45:39;;;;;;;16.55;13.40;;;16.30;99.90;;;;;;5022784;28;20052;-60
2023/09/10 05:48:04;;;;;;;17.38;14.45;;;16.30;99.90;;;;;;5020160;28;20104;-59
2023/09/10 05:50:30;;;;;;;21.83;17.88;;;16.40;99.90;;;;;;5022258;28;20064;-60
2023/09/10 05:52:56;;;;;;;27.35;21.67;;;16.50;99.90;;;;;;5019413;28;20054;-59
2023/09/10 05:55:23;;;;;;;31.25;23.15;;;16.70;99.90;;;;;;5022595;28;20017;-60
2023/09/10 05:57:50;;;;;;;24.42;20.42;;;16.90;99.90;;;;;;5023266;28;20017;-60
2023/09/10 06:00:15;;;;;;;26.60;21.88;;;17.00;99.90;;;;;;5018232;28;20037;-60
2023/09/10 06:02:42;;;;;;;22.27;18.63;;;17.10;99.90;;;;;;5028188;28;20033;-59
2023/09/10 06:05:07;;;;;;;25.63;18.80;;;17.20;99.90;;;;;;5022089;28;20040;-59
2023/09/10 06:07:33;;;;;;;20.45;17.30;;;17.30;99.90;;;;;;5030462;28;20033;-59
2023/09/10 06:09:58;;;;;;;25.13;20.42;;;17.40;99.90;;;;;;5020474;28;20022;-59
2023/09/10 06:12:24;;;;;;;25.40;20.42;;;17.50;99.90;;;;;;5029532;28;20026;-59
2023/09/10 06:14:49;;;;;;;26.85;21.90;;;17.60;99.90;;;;;;5030212;28;20076;-59
2023/09/10 06:17:15;;;;;;;28.90;20.38;;;17.70;99.90;;;;;;5027308;28;20075;-58
2023/09/10 06:19:40;;;;;;;27.25;20.63;;;17.70;99.90;;;;;;5020423;28;20021;-59
2023/09/10 06:22:06;;;;;;;34.30;22.27;;;17.80;99.90;;;;;;5030864;28;20394;-59
2023/09/10 06:24:31;;;;;;;26.10;19.90;;;17.90;99.90;;;;;;5028593;28;20037;-59
2023/09/10 06:26:57;;;;;;;22.23;19.00;;;17.90;99.90;;;;;;5029031;28;20041;-59
2023/09/10 06:29:22;;;;;;;30.17;23.63;;;17.90;99.90;;;;;;5027350;28;20080;-59
2023/09/10 06:31:48;;;;;;;36.45;24.70;;;18.00;99.90;;;;;;5020745;28;20040;-58
2023/09/10 06:34:13;;;;;;;36.00;24.83;;;18.10;99.90;;;;;;5028037;28;20313;-58
2023/09/10 06:36:39;;;;;;;28.77;21.67;;;18.10;99.90;;;;;;5025029;28;20466;-58
2023/09/10 06:39:05;;;;;;;26.45;22.13;;;18.20;99.90;;;;;;5021817;28;20040;-59
2023/09/10 06:41:31;;;;;;;27.38;21.92;;;18.20;99.90;;;;;;5021004;28;20433;-57
2023/09/10 06:43:56;;;;;;;24.88;20.27;;;18.30;99.90;;;;;;5016651;28;20025;-59
2023/09/10 06:46:22;;;;;;;28.20;23.58;;;18.30;99.90;;;;;;5019887;28;20033;-59
2023/09/10 06:48:47;;;;;;;26.65;21.55;;;18.40;99.90;;;;;;5029694;28;20036;-58
2023/09/10 06:51:13;;;;;;;26.67;22.20;;;18.50;99.90;;;;;;5030133;28;20034;-58
2023/09/10 06:53:38;;;;;;;29.65;24.65;;;18.60;99.90;;;;;;5030401;28;20083;-58
2023/09/10 06:56:04;;;;;;;35.33;27.02;;;18.60;99.90;;;;;;5029225;28;20037;-59
2023/09/10 06:58:30;;;;;;;33.88;26.58;;;18.70;99.90;;;;;;5022751;28;20033;-59
2023/09/10 07:00:56;;;;;;;29.75;23.90;;;18.70;99.90;;;;;;5019429;28;20101;-58
2023/09/10 07:03:22;;;;;;;37.00;26.95;;;18.80;99.90;;;;;;5023590;28;20132;-58
2023/09/10 07:05:47;;;;;;;38.75;27.20;;;18.90;99.90;;;;;;5022776;28;20060;-58
2023/09/10 07:08:13;;;;;;;36.08;29.23;;;19.00;99.90;;;;;;5018422;28;20017;-58
2023/09/10 07:10:39;;;;;;;33.40;27.77;;;19.10;99.90;;;;;;5026384;28;20028;-58
2023/09/10 07:13:06;;;;;;;38.78;32.30;;;19.10;99.90;;;;;;5028251;28;20391;-59
2023/09/10 07:15:32;;;;;;;36.28;29.42;;;19.20;99.90;;;;;;5025968;28;20028;-59
2023/09/10 07:17:58;;;;;;;39.72;32.53;;;19.20;99.90;;;;;;5021817;28;20026;-59
2023/09/10 07:20:24;;;;;;;42.83;33.95;;;19.30;99.90;;;;;;5019176;28;20087;-60
2023/09/10 07:22:49;;;;;;;36.00;27.92;;;19.40;99.90;;;;;;5016940;28;20030;-59
2023/09/10 07:25:15;;;;;;;34.00;27.90;;;19.50;99.90;;;;;;5023234;28;20029;-60
2023/09/10 07:27:40;;;;;;;33.28;27.48;;;19.70;99.90;;;;;;5022456;28;20495;-60
2023/09/10 07:30:06;;;;;;;29.40;24.27;;;19.90;99.90;;;;;;5021676;28;20359;-60
2023/09/10 07:32:32;;;;;;;30.63;25.88;;;20.10;99.90;;;;;;5025615;28;20025;-59
2023/09/10 07:34:57;;;;;;;34.22;27.27;;;20.20;99.90;;;;;;5017588;28;20033;-60
2023/09/10 07:37:23;;;;;;;36.95;29.55;;;20.30;99.90;;;;;;5017090;28;20190;-60
2023/09/10 07:39:48;;;;;;;32.50;26.50;;;20.30;99.90;;;;;;5021220;28;20105;-59
2023/09/10 07:42:14;;;;;;;31.92;26.98;;;20.40;99.90;;;;;;5025310;28;20287;-60
2023/09/10 07:44:41;;;;;;;31.23;25.63;;;20.50;99.90;;;;;;5024573;28;20021;-60
2023/09/10 07:47:07;;;;;;;37.30;28.90;;;20.60;99.90;;;;;;5027653;28;20475;-60
2023/09/10 07:49:33;;;;;;;33.13;29.00;;;20.60;99.90;;;;;;5027335;28;20048;-60
2023/09/10 07:51:58;;;;;;;39.45;29.55;;;20.80;99.90;;;;;;5029246;28;20025;-61
2023/09/10 07:54:24;;;;;;;32.90;29.13;;;20.90;99.90;;;;;;5029279;28;20272;-60
2023/09/10 07:56:49;;;;;;;36.50;27.73;;;21.30;99.90;;;;;;5025984;28;20095;-60
2023/09/10 07:59:15;;;;;;;34.65;26.98;;;21.90;99.90;;;;;;5028900;28;20025;-60
2023/09/10 08:01:40;;;;;;;25.63;22.50;;;22.60;99.90;;;;;;5028896;28;20032;-61
2023/09/10 08:04:06;;;;;;;28.73;21.63;;;23.20;99.90;;;;;;5028392;28;20022;-60
2023/09/10 08:06:32;;;;;;;26.23;22.60;;;23.70;99.90;;;;;;5028409;28;20061;-60
2023/09/10 08:08:58;;;;;;;23.15;20.73;;;24.10;99.90;;;;;;5026943;28;20037;-61
2023/09/10 08:11:23;;;;;;;24.92;21.13;;;24.20;99.90;;;;;;5028397;28;20018;-60
2023/09/10 08:13:50;;;;;;;27.33;20.75;;;24.30;99.90;;;;;;5028677;28;20478;-61
2023/09/10 08:16:17;;;;;;;29.75;21.75;;;24.60;99.90;;;;;;5009698;28;22008;-60
2023/09/10 08:18:42;;;;;;;20.48;18.38;;;25.40;99.90;;;;;;5016038;28;20025;-61
2023/09/10 08:21:08;;;;;;;18.98;16.98;;;26.10;99.90;;;;;;5018862;28;20087;-61
2023/09/10 08:23:33;;;;;;;22.27;19.88;;;26.90;99.90;;;;;;5019407;28;20319;-61
2023/09/10 08:25:59;;;;;;;15.98;14.25;;;27.70;99.90;;;;;;5025185;28;20179;-61
2023/09/10 08:28:24;;;;;;;15.90;13.75;;;29.00;98.50;;;;;;5013680;28;20083;-62
2023/09/10 08:30:51;;;;;;;16.85;13.38;;;30.30;95.30;;;;;;5029860;28;20029;-62
2023/09/10 08:33:17;;;;;;;15.00;12.95;;;31.50;92.90;;;;;;5027692;28;20026;-62
2023/09/10 08:35:46;;;;;;;16.63;13.02;;;32.30;90.40;;;;;;5027830;28;20025;-62
2023/09/10 08:38:12;;;;;;;11.45;10.35;;;32.90;88.30;;;;;;5031549;28;20061;-63
2023/09/10 08:40:47;;;;;;;12.98;11.05;;;33.80;85.30;;;;;;5024670;28;20049;-63
2023/09/10 08:43:17;;;;;;;15.48;11.40;;;34.90;81.70;;;;;;5025005;28;20105;-63
2023/09/10 08:45:43;;;;;;;10.80;9.80;;;35.00;79.10;;;;;;5029764;28;20403;-63
2023/09/10 08:48:10;;;;;;;12.40;11.20;;;35.80;76.60;;;;;;5027114;28;20033;-63
2023/09/10 08:50:36;;;;;;;13.05;9.30;;;36.30;74.20;;;;;;5027192;28;20029;-63
2023/09/10 08:53:05;;;;;;;9.88;8.85;;;37.10;71.70;;;;;;5033507;28;20033;-63
2023/09/10 08:55:31;;;;;;;10.15;9.05;;;37.30;70.30;;;;;;5033439;28;20021;-63
2023/09/10 08:57:58;;;;;;;12.90;10.38;;;38.10;67.70;;;;;;5032781;28;20029;-62
2023/09/10 09:00:25;;;;;;;12.38;9.57;;;38.00;67.50;;;;;;5031544;28;20025;-62
2023/09/10 09:02:51;;;;;;;11.20;10.07;;;38.50;66.40;;;;;;5031032;28;20040;-61
2023/09/10 09:05:17;;;;;;;10.05;8.35;;;38.30;65.60;;;;;;5049070;28;20029;-61
2023/09/10 09:07:54;;;;;;;11.27;9.43;;;38.60;64.60;;;;;;5033708;28;20025;-63
2023/09/10 09:10:28;;;;;;;10.55;9.25;;;38.70;64.00;;;;;;5023628;28;20500;-63
2023/09/10 09:13:01;;;;;;;9.02;8.13;;;38.50;64.70;;;;;;5030356;28;20034;-63
2023/09/10 09:15:27;;;;;;;10.60;9.25;;;38.80;62.90;;;;;;5033854;28;20033;-62
2023/09/10 09:17:55;;;;;;;10.43;9.48;;;38.10;64.40;;;;;;5033512;28;20028;-63
2023/09/10 09:20:22;;;;;;;10.45;9.45;;;38.70;64.20;;;;;;5028562;28;20041;-63
2023/09/10 09:22:51;;;;;;;10.98;8.27;;;39.20;63.80;;;;;;5027804;28;20034;-62
2023/09/10 09:25:17;;;;;;;9.40;7.70;;;39.40;62.20;;;;;;5023225;28;20080;-62
2023/09/10 09:27:43;;;;;;;10.30;9.18;;;39.90;61.00;;;;;;5028128;28;20034;-63
2023/09/10 09:30:11;;;;;;;17.25;8.63;;;39.90;61.70;;;;;;5017909;28;20033;-62
2023/09/10 09:32:37;;;;;;;9.65;8.75;;;39.90;60.50;;;;;;5027284;28;20022;-62
2023/09/10 09:35:04;;;;;;;8.45;7.65;;;39.60;61.90;;;;;;5030029;28;20033;-62
2023/09/10 09:37:33;;;;;;;11.05;7.10;;;39.80;61.20;;;;;;5022170;28;20399;-63
2023/09/10 09:40:09;;;;;;;11.50;9.20;;;39.80;60.80;;;;;;5027225;28;20207;-62
2023/09/10 09:42:36;;;;;;;9.23;8.27;;;40.00;59.10;;;;;;5032901;28;20451;-63
2023/09/10 09:45:02;;;;;;;9.82;7.40;;;40.10;59.30;;;;;;5032968;28;20451;-62
2023/09/10 09:47:27;;;;;;;9.32;7.68;;;40.10;59.60;;;;;;5033215;28;20025;-62
2023/09/10 09:49:56;;;;;;;11.55;7.72;;;39.80;59.90;;;;;;5047944;28;20017;-62
2023/09/10 09:52:21;;;;;;;9.15;7.45;;;40.20;59.40;;;;;;5024490;28;20451;-63
2023/09/10 09:54:47;;;;;;;7.65;6.95;;;39.80;61.90;;;;;;5032857;28;20041;-62
2023/09/10 09:57:13;;;;;;;7.00;6.38;;;39.90;59.50;;;;;;5048014;28;20028;-62
2023/09/10 09:59:38;;;;;;;9.52;8.00;;;40.20;59.70;;;;;;5029397;28;20013;-62
2023/09/10 10:02:04;;;;;;;8.40;7.63;;;39.90;60.20;;;;;;5024644;28;20086;-62
2023/09/10 10:04:33;;;;;;;8.80;7.93;;;40.20;60.00;;;;;;5019481;28;20442;-63
2023/09/10 10:07:01;;;;;;;8.77;7.68;;;40.20;60.40;;;;;;5024701;28;20075;-62
2023/09/10 10:09:37;;;;;;;16.40;7.78;;;40.20;59.70;;;;;;5030360;28;20017;-62
2023/09/10 10:12:06;;;;;;;9.60;8.23;;;40.20;60.50;;;;;;5030206;28;20036;-63
2023/09/10 10:14:33;;;;;;;8.95;8.05;;;40.00;60.50;;;;;;5032211;28;20021;-62
2023/09/10 10:17:03;;;;;;;8.85;7.40;;;40.50;58.80;;;;;;5031982;28;20347;-62
2023/09/10 10:19:30;;;;;;;11.25;7.90;;;40.50;58.70;;;;;;5024424;28;20013;-63
2023/09/10 10:21:56;;;;;;;9.90;7.78;;;40.30;58.50;;;;;;5027657;28;20021;-61
2023/09/10 10:24:22;;;;;;;9.15;8.32;;;40.50;58.70;;;;;;5030131;28;20032;-62
2023/09/10 10:26:49;;;;;;;8.20;7.32;;;40.10;57.40;;;;;;5027636;28;20022;-62
2023/09/10 10:29:17;;;;;;;10.18;6.72;;;40.20;59.70;;;;;;5020434;28;20068;-62
2023/09/10 10:31:47;;;;;;;9.18;7.20;;;40.60;57.90;;;;;;5025423;28;20496;-62
2023/09/10 10:34:16;;;;;;;8.23;6.80;;;40.80;57.50;;;;;;5024999;28;20126;-62
2023/09/10 10:36:47;;;;;;;;;;;41.10;57.90;;;;;;5018484;28;20037;-63
2023/09/10 10:39:15;;;;;;;13.90;7.53;;;40.80;58.50;;;;;;5029537;28;19917;-62
2023/09/10 10:41:45;;;;;;;8.15;7.28;;;40.70;58.00;;;;;;5020946;28;20037;-63
2023/09/10 10:44:36;;;;;;;10.40;7.68;;;40.30;58.30;;;;;;5024391;28;20037;-61
2023/09/10 10:47:17;;;;;;;7.97;7.20;;;40.30;58.90;;;;;;5027582;28;20022;-62
2023/09/10 10:49:54;;;;;;;9.80;7.53;;;40.30;59.80;;;;;;5031140;28;20037;-63
2023/09/10 10:52:24;;;;;;;9.32;7.05;;;40.20;59.20;;;;;;5012824;28;20034;-63
2023/09/10 10:54:53;;;;;;;11.07;8.20;;;40.50;59.20;;;;;;5026765;28;20776;-63
2023/09/10 10:57:21;;;;;;;7.28;6.57;;;40.50;58.50;;;;;;5029434;28;20367;-63
2023/09/10 10:59:47;;;;;;;8.95;6.95;;;40.40;59.70;;;;;;5021009;28;20014;-63
2023/09/10 11:02:22;;;;;;;8.43;7.10;;;40.40;60.30;;;;;;5023477;28;20069;-63
2023/09/10 11:05:04;;;;;;;7.78;6.68;;;40.40;58.90;;;;;;5030656;28;20543;-62
2023/09/10 11:07:31;;;;;;;13.48;8.63;;;40.30;60.00;;;;;;5023972;28;20031;-63
2023/09/10 11:09:58;;;;;;;13.85;7.68;;;40.40;58.40;;;;;;5025328;28;20060;-63
2023/09/10 11:12:25;;;;;;;7.32;6.57;;;40.30;59.60;;;;;;5028026;28;20022;-63
2023/09/10 11:14:59;;;;;;;7.68;6.93;;;40.40;58.00;;;;;;5027266;28;20127;-64
2023/09/10 11:17:29;;;;;;;7.47;6.78;;;40.70;56.50;;;;;;5016157;28;20029;-63
2023/09/10 11:19:55;;;;;;;9.52;6.72;;;40.90;57.10;;;;;;5025409;28;20391;-63
2023/09/10 11:22:21;;;;;;;11.25;7.05;;;40.40;57.50;;;;;;5028882;28;20022;-62
2023/09/10 11:25:07;;;;;;;7.45;6.28;;;40.40;58.80;;;;;;5028517;28;20029;-63
2023/09/10 11:27:34;;;;;;;9.02;7.13;;;40.60;59.00;;;;;;5022135;28;20108;-63
2023/09/10 11:30:10;;;;;;;10.00;6.47;;;40.80;57.00;;;;;;5027958;28;20041;-63
2023/09/10 11:32:36;;;;;;;8.45;5.78;;;40.00;57.60;;;;;;5024921;28;20029;-63
2023/09/10 11:35:20;;;;;;;8.00;6.03;;;40.40;56.70;;;;;;5019012;28;20021;-63
2023/09/10 11:37:51;;;;;;;11.70;6.57;;;40.90;57.60;;;;;;5023500;28;20109;-63
2023/09/10 11:40:17;;;;;;;8.38;5.70;;;40.70;58.30;;;;;;5027212;28;20026;-63
2023/09/10 11:42:47;;;;;;;9.40;6.18;;;40.90;57.20;;;;;;5028613;28;20535;-63
2023/09/10 11:45:13;;;;;;;6.57;5.68;;;40.80;57.20;;;;;;5028507;28;20026;-63
2023/09/10 11:47:43;;;;;;;9.23;6.28;;;40.80;56.20;;;;;;5019338;28;20113;-62
2023/09/10 11:50:10;;;;;;;7.68;5.95;;;40.40;56.90;;;;;;5017005;28;20022;-63
2023/09/10 11:52:37;;;;;;;13.05;6.32;;;40.70;56.90;;;;;;5028434;28;20502;-62
2023/09/10 11:55:09;;;;;;;10.02;6.50;;;40.20;56.70;;;;;;5025092;28;20457;-63
2023/09/10 11:57:35;;;;;;;13.48;6.30;;;40.30;57.80;;;;;;5013788;28;20104;-63
2023/09/10 12:00:00;;;;;;;8.43;6.82;;;40.40;58.90;;;;;;5028713;28;20018;-62
2023/09/10 12:02:26;;;;;;;14.10;6.30;;;40.40;57.50;;;;;;5028211;28;20486;-63
2023/09/10 12:04:52;;;;;;;8.00;5.85;;;40.60;56.70;;;;;;5019856;28;20546;-64
2023/09/10 12:07:19;;;;;;;15.18;6.45;;;40.60;57.00;;;;;;5021137;28;20088;-62
2023/09/10 12:09:44;;;;;;;11.95;6.25;;;40.00;56.60;;;;;;5028929;28;20493;-62
2023/09/10 12:12:19;;;;;;;11.48;7.10;;;39.40;57.70;;;;;;5029176;28;20025;-62
2023/09/10 12:14:44;;;;;;;9.55;7.03;;;39.30;59.90;;;;;;5019173;28;20387;-62
2023/09/10 12:17:10;;;;;;;9.25;6.70;;;38.80;58.70;;;;;;5025155;28;20022;-62
2023/09/10 12:19:37;;;;;;;10.95;7.57;;;38.40;60.50;;;;;;5026803;28;20486;-63
2023/09/10 12:22:04;;;;;;;10.90;7.28;;;38.00;60.00;;;;;;5029232;28;20032;-63
2023/09/10 12:24:30;;;;;;;12.85;7.47;;;37.40;62.00;;;;;;5025454;28;20034;-61
2023/09/10 12:26:56;;;;;;;16.20;7.78;;;37.00;62.80;;;;;;5025500;28;20360;-62
2023/09/10 12:29:21;;;;;;;16.98;7.75;;;36.40;64.30;;;;;;5026288;28;20053;-62
2023/09/10 12:31:52;;;;;;;14.52;8.57;;;36.40;64.10;;;;;;5022769;28;20410;-62